Zoarville, Ohio
Current Conditions -  °F | °C
As of 7:53 PM on Saturday 25 Oct 2014 (Local Time) from KPHD Reporting Station
Clear Clear  
Wind Chill: 65°   Ceiling: Unl
Heat Index: 65°   Visibility: 10mi
Dew Point: 52°   Wind: 3mph
Humidity: 63%   Direction: 260°W
Pressure: 29.8"   Gusts: NA
Location:  40.5975°N, 81.3327°W
Report Text: KPHD 252353Z AUTO 26003KT 10SM CLR 18/11 A2980 RMK AO2 SLP090 T01830111 10217 20172 53001
Loading
Personal Weather Stations






























Interactive Weather Map
Tropical Storm Tracking
New forecast layout! Learn more

10-Day Weather Forecast

Advertisements
Track Severe Weather on mobile